createdAt,value
2018-02-19T00:01:18.067Z,35.90
2018-02-19T00:03:45.654Z,32.77
2018-02-19T00:06:13.269Z,33.47
2018-02-19T00:08:40.924Z,32.93
2018-02-19T00:11:08.497Z,31.40
2018-02-19T00:13:36.135Z,32.90
2018-02-19T00:16:03.727Z,31.43
2018-02-19T00:18:31.335Z,33.40
2018-02-19T00:20:59.259Z,31.00
2018-02-19T00:23:26.930Z,32.80
2018-02-19T00:25:54.499Z,33.20
2018-02-19T00:28:22.111Z,30.40
2018-02-19T00:30:49.710Z,30.87
2018-02-19T00:33:17.293Z,30.43
2018-02-19T00:35:44.957Z,32.20
2018-02-19T00:38:12.512Z,28.70
2018-02-19T00:40:41.018Z,31.10
2018-02-19T00:43:08.674Z,31.67
2018-02-19T00:45:36.250Z,32.53
2018-02-19T00:48:03.832Z,31.07
2018-02-19T00:50:31.857Z,33.20
2018-02-19T00:52:59.438Z,33.53
2018-02-19T00:55:27.074Z,31.27
2018-02-19T00:57:54.738Z,28.83
2018-02-19T01:00:22.322Z,33.10
2018-02-19T01:02:49.919Z,31.67
2018-02-19T01:05:17.541Z,33.27
2018-02-19T01:07:45.197Z,31.33
2018-02-19T01:10:12.777Z,33.73
2018-02-19T01:12:40.414Z,32.60
2018-02-19T01:15:07.976Z,32.17
2018-02-19T01:17:35.538Z,33.47
2018-02-19T01:20:03.512Z,33.60
2018-02-19T01:22:31.110Z,35.10
2018-02-19T01:24:58.677Z,31.13
2018-02-19T01:27:26.328Z,28.43
2018-02-19T01:29:53.888Z,30.93
2018-02-19T01:32:21.522Z,32.73
2018-02-19T01:34:49.163Z,31.77
2018-02-19T01:37:16.759Z,33.13
2018-02-19T01:39:44.346Z,32.80
2018-02-19T01:42:12.210Z,32.97
2018-02-19T01:44:39.785Z,34.93
2018-02-19T01:47:07.378Z,34.37
2018-02-19T01:49:35.025Z,34.60
2018-02-19T01:52:02.837Z,32.07
2018-02-19T01:54:30.418Z,29.77
2018-02-19T01:56:58.045Z,32.90
2018-02-19T01:59:25.631Z,31.70
2018-02-19T02:01:53.328Z,31.70
2018-02-19T02:04:20.991Z,29.37
2018-02-19T02:06:48.891Z,31.07
2018-02-19T02:09:16.481Z,29.23
2018-02-19T02:11:44.198Z,30.90
2018-02-19T02:14:11.770Z,31.03
2018-02-19T02:16:39.341Z,32.27
2018-02-19T02:19:06.995Z,29.53
2018-02-19T02:21:34.564Z,29.77
2018-02-19T02:24:02.158Z,33.33
2018-02-19T02:26:29.793Z,29.00
2018-02-19T02:28:58.251Z,33.17
2018-02-19T02:31:25.829Z,28.93
2018-02-19T02:33:53.465Z,30.07
2018-02-19T02:36:21.042Z,32.27
2018-02-19T02:38:48.617Z,30.27
2018-02-19T02:41:16.264Z,30.43
2018-02-19T02:43:43.865Z,28.50
2018-02-19T02:46:11.468Z,28.37
2018-02-19T02:48:39.343Z,30.33
2018-02-19T02:51:06.980Z,27.97
2018-02-19T02:53:34.901Z,31.27
2018-02-19T02:56:02.529Z,28.57
2018-02-19T02:58:30.205Z,30.90
2018-02-19T03:00:57.794Z,30.70
2018-02-19T03:03:25.446Z,32.17
2018-02-19T03:05:53.050Z,32.43
2018-02-19T03:08:20.706Z,31.57
2018-02-19T03:10:48.313Z,28.57
2018-02-19T03:13:15.894Z,30.57
2018-02-19T03:15:43.452Z,29.23
2018-02-19T03:18:11.089Z,30.30
2018-02-19T03:20:38.659Z,32.07
2018-02-19T03:23:06.305Z,33.87
2018-02-19T03:25:33.936Z,36.50
2018-02-19T03:28:01.578Z,36.67
2018-02-19T03:30:29.270Z,37.80
2018-02-19T03:32:56.910Z,37.67
2018-02-19T03:35:24.473Z,34.80
2018-02-19T03:37:52.046Z,33.63
2018-02-19T03:40:20.834Z,33.13
2018-02-19T03:42:48.413Z,34.17
2018-02-19T03:45:16.070Z,30.67
2018-02-19T03:47:43.721Z,29.10
2018-02-19T03:50:11.340Z,29.37
2018-02-19T03:52:39.408Z,37.53
2018-02-19T03:55:08.105Z,30.67
2018-02-19T03:57:35.668Z,36.07
2018-02-19T04:00:03.271Z,32.33
2018-02-19T04:02:30.988Z,29.63
2018-02-19T04:04:58.548Z,32.50
2018-02-19T04:07:26.192Z,32.93
2018-02-19T04:09:54.086Z,34.63
2018-02-19T04:12:21.658Z,31.47
2018-02-19T04:14:49.235Z,32.73
2018-02-19T04:17:17.552Z,30.13
2018-02-19T04:19:45.128Z,31.33
2018-02-19T04:22:12.753Z,33.23
2018-02-19T04:24:40.397Z,42.27
2018-02-19T04:27:07.979Z,44.53
2018-02-19T04:29:35.557Z,43.57
2018-02-19T04:32:03.189Z,44.47
2018-02-19T04:34:30.766Z,44.80
2018-02-19T04:36:58.365Z,37.57
2018-02-19T04:39:25.994Z,40.57
2018-02-19T04:41:53.576Z,32.50
2018-02-19T04:44:24.536Z,35.53
2018-02-19T04:46:52.471Z,34.13
2018-02-19T04:49:20.055Z,32.80
2018-02-19T04:51:47.613Z,33.50
2018-02-19T04:54:15.263Z,36.93
2018-02-19T04:56:42.946Z,36.07
2018-02-19T04:59:10.630Z,30.47
2018-02-19T05:01:38.344Z,28.83
2018-02-19T05:04:05.917Z,32.10
2018-02-19T05:06:33.551Z,34.40
2018-02-19T05:09:01.200Z,40.90
2018-02-19T05:11:28.772Z,42.33
2018-02-19T05:13:56.406Z,40.63
2018-02-19T05:16:24.032Z,40.43
2018-02-19T05:18:51.601Z,40.27
2018-02-19T05:21:19.190Z,39.43
2018-02-19T05:23:46.864Z,35.37
2018-02-19T05:26:14.463Z,37.10
2018-02-19T05:28:42.054Z,42.33
2018-02-19T05:31:09.688Z,37.70
2018-02-19T05:33:37.273Z,44.50
2018-02-19T05:36:04.841Z,43.70
2018-02-19T05:38:32.466Z,41.00
2018-02-19T05:41:00.131Z,42.10
2018-02-19T05:43:27.688Z,37.83
2018-02-19T05:45:55.818Z,50.07
2018-02-19T05:48:23.400Z,43.13
2018-02-19T05:50:51.012Z,43.93
2018-02-19T05:53:18.701Z,45.67
2018-02-19T05:55:46.285Z,47.57
2018-02-19T05:58:13.962Z,41.53
2018-02-19T06:00:41.575Z,41.00
2018-02-19T06:03:09.145Z,36.43
2018-02-19T06:05:36.736Z,47.03
2018-02-19T06:08:04.411Z,35.10
2018-02-19T06:10:32.075Z,35.87
2018-02-19T06:12:59.655Z,31.57
2018-02-19T06:15:27.281Z,33.33
2018-02-19T06:17:54.850Z,37.77
2018-02-19T06:20:22.444Z,45.83
2018-02-19T06:22:50.345Z,33.07
2018-02-19T06:25:17.930Z,31.67
2018-02-19T06:27:45.682Z,40.53
2018-02-19T06:30:13.365Z,34.53
2018-02-19T06:32:40.973Z,35.10
2018-02-19T06:35:08.570Z,33.70
2018-02-19T06:37:36.232Z,38.10
2018-02-19T06:40:03.849Z,37.23
2018-02-19T06:42:31.479Z,40.07
2018-02-19T06:44:59.195Z,36.53
2018-02-19T06:47:26.774Z,33.67
2018-02-19T06:49:54.342Z,37.40
2018-02-19T06:52:22.008Z,30.50
2018-02-19T06:54:49.584Z,39.07
2018-02-19T06:57:17.145Z,37.00
2018-02-19T06:59:45.459Z,44.27
2018-02-19T07:02:13.050Z,40.10
2018-02-19T07:04:40.694Z,36.37
2018-02-19T07:07:08.326Z,30.27
2018-02-19T07:09:35.982Z,31.37
2018-02-19T07:12:03.552Z,32.57
2018-02-19T07:14:31.182Z,37.03
2018-02-19T07:16:58.760Z,37.03
2018-02-19T07:19:26.330Z,30.87
2018-02-19T07:21:53.974Z,39.57
2018-02-19T07:24:21.553Z,35.27
2018-02-19T07:26:49.174Z,39.03
2018-02-19T07:29:16.818Z,44.07
2018-02-19T07:31:44.431Z,38.73
2018-02-19T07:34:12.083Z,47.47
2018-02-19T07:36:39.704Z,41.07
2018-02-19T07:39:07.287Z,41.10
2018-02-19T07:41:35.354Z,38.63
2018-02-19T07:44:02.985Z,35.73
2018-02-19T07:46:30.547Z,32.57
2018-02-19T07:48:58.146Z,29.70
2018-02-19T07:51:25.772Z,28.60
2018-02-19T07:53:53.337Z,29.13
2018-02-19T07:56:20.918Z,39.47
2018-02-19T07:58:48.714Z,41.20
2018-02-19T08:01:16.402Z,36.90
2018-02-19T08:03:44.446Z,34.23
2018-02-19T08:06:12.093Z,34.50
2018-02-19T08:08:39.664Z,34.77
2018-02-19T08:11:08.178Z,37.37
2018-02-19T08:13:35.809Z,34.77
2018-02-19T08:16:03.390Z,39.17
2018-02-19T08:18:30.987Z,40.37
2018-02-19T08:20:58.642Z,43.67
2018-02-19T08:23:26.209Z,40.67
2018-02-19T08:25:53.760Z,43.27
2018-02-19T08:28:21.458Z,42.57
2018-02-19T08:30:49.042Z,38.73
2018-02-19T08:33:16.687Z,48.90
2018-02-19T08:35:44.319Z,42.20
2018-02-19T08:38:11.976Z,47.80
2018-02-19T08:40:39.540Z,42.57
2018-02-19T08:43:07.164Z,43.70
2018-02-19T08:45:34.802Z,45.90
2018-02-19T08:48:02.387Z,38.47
2018-02-19T08:50:30.027Z,45.37
2018-02-19T08:52:57.674Z,38.40
2018-02-19T08:55:25.354Z,42.37
2018-02-19T08:57:53.038Z,33.67
2018-02-19T09:00:20.782Z,34.63
2018-02-19T09:02:48.466Z,41.77
2018-02-19T09:05:16.110Z,40.93
2018-02-19T09:07:43.693Z,47.53
2018-02-19T09:10:11.304Z,40.37
2018-02-19T09:12:38.987Z,44.03
2018-02-19T09:15:06.528Z,42.37
2018-02-19T09:17:34.185Z,39.10
2018-02-19T09:20:02.048Z,30.67
2018-02-19T09:22:29.718Z,31.33
2018-02-19T09:24:57.272Z,32.93
2018-02-19T09:27:24.909Z,30.67
2018-02-19T09:29:52.507Z,30.13
2018-02-19T09:32:20.101Z,29.63
2018-02-19T09:34:47.817Z,31.23
2018-02-19T09:37:15.387Z,30.73
2018-02-19T09:39:43.028Z,29.33
2018-02-19T09:42:10.743Z,26.93
2018-02-19T09:44:38.318Z,31.47
2018-02-19T09:47:05.919Z,29.17
2018-02-19T09:49:33.545Z,25.17
2018-02-19T09:52:01.123Z,25.77
2018-02-19T09:54:28.703Z,25.97
2018-02-19T09:56:56.347Z,22.13
2018-02-19T09:59:23.919Z,26.10
2018-02-19T10:01:51.498Z,27.93
2018-02-19T10:04:19.222Z,26.30
2018-02-19T10:06:46.867Z,30.43
2018-02-19T10:09:14.432Z,30.27
2018-02-19T10:11:42.878Z,29.33
2018-02-19T10:14:10.459Z,34.93
2018-02-19T10:16:38.031Z,38.77
2018-02-19T10:19:05.658Z,34.80
2018-02-19T10:21:33.235Z,27.43
2018-02-19T10:24:00.805Z,24.20
2018-02-19T10:26:28.454Z,18.50
2018-02-19T10:28:56.042Z,22.93
2018-02-19T10:31:23.621Z,19.53
2018-02-19T10:33:51.274Z,18.17
2018-02-19T10:36:18.845Z,21.37
2018-02-19T10:38:46.491Z,23.27
2018-02-19T10:41:14.112Z,18.70
2018-02-19T10:43:41.686Z,16.40
2018-02-19T10:46:09.296Z,18.53
2018-02-19T10:48:36.932Z,20.20
2018-02-19T10:51:04.598Z,21.47
2018-02-19T10:53:32.981Z,22.97
2018-02-19T10:56:00.641Z,25.10
2018-02-19T10:58:28.218Z,23.53
2018-02-19T11:00:55.784Z,23.87
2018-02-19T11:03:23.439Z,24.20
2018-02-19T11:05:51.138Z,17.97
2018-02-19T11:08:19.331Z,16.93
2018-02-19T11:10:46.978Z,22.73
2018-02-19T11:13:14.569Z,23.47
2018-02-19T11:15:42.137Z,21.33
2018-02-19T11:18:09.800Z,23.13
2018-02-19T11:20:37.367Z,20.07
2018-02-19T11:23:04.933Z,19.47
2018-02-19T11:25:32.578Z,24.53
2018-02-19T11:28:00.148Z,24.70
2018-02-19T11:30:27.716Z,20.60
2018-02-19T11:32:55.351Z,22.40
2018-02-19T11:35:22.951Z,26.23
2018-02-19T11:37:50.534Z,23.20
2018-02-19T11:40:18.150Z,24.67
2018-02-19T11:42:45.728Z,24.77
2018-02-19T11:45:13.293Z,21.60
2018-02-19T11:47:41.076Z,23.43
2018-02-19T11:50:09.038Z,23.10
2018-02-19T11:52:36.691Z,29.23
2018-02-19T11:55:04.328Z,23.17
2018-02-19T11:57:31.920Z,26.73
2018-02-19T11:59:59.491Z,25.70
2018-02-19T12:02:27.133Z,23.53
2018-02-19T12:04:54.720Z,31.17
2018-02-19T12:07:22.425Z,26.80
2018-02-19T12:09:50.057Z,25.00
2018-02-19T12:12:17.639Z,27.50
2018-02-19T12:14:45.231Z,25.73
2018-02-19T12:17:12.866Z,24.10
2018-02-19T12:19:40.537Z,30.77
2018-02-19T12:22:08.138Z,25.70
2018-02-19T12:24:35.807Z,30.27
2018-02-19T12:27:03.398Z,25.93
2018-02-19T12:29:31.042Z,19.70
2018-02-19T12:31:58.826Z,20.23
2018-02-19T12:34:26.400Z,21.00
2018-02-19T12:36:53.969Z,20.47
2018-02-19T12:39:21.614Z,18.13
2018-02-19T12:41:49.186Z,20.10
2018-02-19T12:44:16.762Z,18.47
2018-02-19T12:46:44.403Z,19.50
2018-02-19T12:49:11.979Z,20.30
2018-02-19T12:51:39.548Z,18.37
2018-02-19T12:54:07.847Z,20.57
2018-02-19T12:56:35.412Z,20.40
2018-02-19T12:59:03.017Z,16.70
2018-02-19T13:01:30.668Z,17.23
2018-02-19T13:03:58.310Z,20.07
2018-02-19T13:06:25.891Z,25.83
2018-02-19T13:08:53.740Z,18.43
2018-02-19T13:11:21.280Z,21.17
2018-02-19T13:13:48.857Z,20.83
2018-02-19T13:16:16.517Z,19.57
2018-02-19T13:18:44.122Z,22.70
2018-02-19T13:21:11.744Z,23.73
2018-02-19T13:23:39.353Z,23.17
2018-02-19T13:26:06.932Z,24.87
2018-02-19T13:28:34.525Z,22.43
2018-02-19T13:31:02.251Z,21.70
2018-02-19T13:33:29.908Z,21.63
2018-02-19T13:35:57.541Z,24.07
2018-02-19T13:38:25.168Z,23.83
2018-02-19T13:40:52.762Z,24.87
2018-02-19T13:43:20.410Z,25.60
2018-02-19T13:45:48.149Z,26.73
2018-02-19T13:48:15.849Z,25.50
2018-02-19T13:50:43.628Z,24.10
2018-02-19T13:53:11.460Z,21.43
2018-02-19T13:55:39.199Z,18.67
2018-02-19T13:58:06.922Z,16.43
2018-02-19T14:00:34.908Z,17.87
2018-02-19T14:03:02.598Z,20.27
2018-02-19T14:05:30.342Z,20.47
2018-02-19T14:07:58.161Z,18.83
2018-02-19T14:10:26.308Z,17.90
2018-02-19T14:12:53.984Z,13.97
2018-02-19T14:15:21.686Z,13.40
2018-02-19T14:17:49.260Z,11.00
2018-02-19T14:20:17.398Z,12.40
2018-02-19T14:22:45.014Z,14.03
2018-02-19T14:25:12.569Z,12.27
2018-02-19T14:27:40.148Z,17.83
2018-02-19T14:30:07.836Z,11.40
2018-02-19T14:32:35.480Z,16.63
2018-02-19T14:35:03.056Z,20.97
2018-02-19T14:37:30.771Z,27.73
2018-02-19T14:39:58.378Z,19.17
2018-02-19T14:42:25.945Z,11.43
2018-02-19T14:44:53.586Z,12.17
2018-02-19T14:47:21.150Z,13.10
2018-02-19T14:49:48.719Z,12.63
2018-02-19T14:52:16.342Z,13.63
2018-02-19T14:54:43.970Z,12.90
2018-02-19T14:57:11.542Z,12.87
2018-02-19T14:59:39.236Z,14.03
2018-02-19T15:02:06.824Z,15.83
2018-02-19T15:04:34.405Z,16.77
2018-02-19T15:07:02.121Z,13.93
2018-02-19T15:09:29.673Z,15.93
2018-02-19T15:11:57.410Z,12.30
2018-02-19T15:14:25.107Z,14.17
2018-02-19T15:16:52.678Z,13.80
2018-02-19T15:19:20.264Z,16.47
2018-02-19T15:21:47.882Z,13.07
2018-02-19T15:24:15.496Z,15.60
2018-02-19T15:26:43.279Z,14.17
2018-02-19T15:29:11.085Z,13.53
2018-02-19T15:31:38.669Z,15.67
2018-02-19T15:34:06.281Z,15.97
2018-02-19T15:36:33.926Z,17.20
2018-02-19T15:39:01.546Z,17.13
2018-02-19T15:41:29.153Z,17.73
2018-02-19T15:43:56.766Z,16.37
2018-02-19T15:46:24.395Z,17.10
2018-02-19T15:48:52.192Z,16.03
2018-02-19T15:51:20.959Z,15.07
2018-02-19T15:53:49.564Z,12.33
2018-02-19T15:56:17.206Z,12.37
2018-02-19T15:58:44.826Z,12.00
2018-02-19T16:01:12.404Z,12.90
2018-02-19T16:03:39.974Z,12.00
2018-02-19T16:06:07.594Z,12.13
2018-02-19T16:08:36.176Z,15.23
2018-02-19T16:11:03.873Z,12.67
2018-02-19T16:13:32.202Z,13.97
2018-02-19T16:16:00.185Z,13.50
2018-02-19T16:18:27.754Z,11.60
2018-02-19T16:20:55.428Z,14.33
2018-02-19T16:23:23.031Z,14.17
2018-02-19T16:25:51.020Z,13.17
2018-02-19T16:28:19.489Z,10.77
2018-02-19T16:30:47.445Z,16.37
2018-02-19T16:33:15.499Z,20.17
2018-02-19T16:35:43.133Z,15.20
2018-02-19T16:38:10.719Z,15.50
2018-02-19T16:40:38.336Z,15.10
2018-02-19T16:43:05.971Z,16.73
2018-02-19T16:45:33.551Z,18.27
2018-02-19T16:48:01.200Z,22.07
2018-02-19T16:50:28.813Z,20.53
2018-02-19T16:52:56.766Z,18.50
2018-02-19T16:55:24.418Z,18.40
2018-02-19T16:57:52.076Z,18.93
2018-02-19T17:00:19.644Z,27.43
2018-02-19T17:02:47.476Z,18.40
2018-02-19T17:05:15.343Z,14.53
2018-02-19T17:07:43.144Z,18.13
2018-02-19T17:10:11.040Z,16.27
2018-02-19T17:12:38.947Z,26.47
2018-02-19T17:15:06.729Z,18.67
2018-02-19T17:17:34.325Z,21.97
2018-02-19T17:20:01.959Z,31.30
2018-02-19T17:22:29.577Z,23.77
2018-02-19T17:24:57.159Z,27.40
2018-02-19T17:27:24.831Z,23.53
2018-02-19T17:29:52.397Z,22.60
2018-02-19T17:32:19.971Z,20.57
2018-02-19T17:34:47.837Z,47.63
2018-02-19T17:37:15.413Z,25.00
2018-02-19T17:39:43.114Z,33.37
2018-02-19T17:42:10.753Z,21.93
2018-02-19T17:44:38.345Z,18.07
2018-02-19T17:47:05.920Z,19.33
2018-02-19T17:49:33.596Z,18.80
2018-02-19T17:52:01.186Z,21.37
2018-02-19T17:54:28.763Z,19.23
2018-02-19T17:56:56.663Z,20.63
2018-02-19T17:59:24.236Z,14.27
2018-02-19T18:01:51.831Z,19.50
2018-02-19T18:04:19.514Z,18.77
2018-02-19T18:06:47.077Z,12.77
2018-02-19T18:09:14.659Z,16.03
2018-02-19T18:11:42.352Z,24.00
2018-02-19T18:14:09.999Z,14.60
2018-02-19T18:16:37.726Z,13.20
2018-02-19T18:19:05.357Z,14.90
2018-02-19T18:21:32.943Z,16.87
2018-02-19T18:24:00.539Z,13.57
2018-02-19T18:26:28.243Z,14.83
2018-02-19T18:28:55.805Z,12.70
2018-02-19T18:31:23.404Z,11.00
2018-02-19T18:33:51.035Z,13.33
2018-02-19T18:36:18.646Z,9.67
2018-02-19T18:38:46.214Z,10.87
2018-02-19T18:41:13.842Z,11.17
2018-02-19T18:43:41.468Z,9.97
2018-02-19T18:46:09.093Z,10.67
2018-02-19T18:48:36.782Z,15.30
2018-02-19T18:51:04.370Z,11.60
2018-02-19T18:53:31.937Z,15.77
2018-02-19T18:55:59.549Z,12.07
2018-02-19T18:58:27.121Z,11.27
2018-02-19T19:00:54.694Z,13.00
2018-02-19T19:03:22.317Z,15.00
2018-02-19T19:05:49.951Z,14.07
2018-02-19T19:08:29.228Z,16.30
2018-02-19T19:10:56.868Z,14.37
2018-02-19T19:13:24.448Z,12.17
2018-02-19T19:15:52.139Z,12.90
2018-02-19T19:18:20.102Z,17.00
2018-02-19T19:20:47.762Z,16.23
2018-02-19T19:23:15.404Z,13.27
2018-02-19T19:25:42.983Z,12.17
2018-02-19T19:28:10.663Z,12.63
2018-02-19T19:30:38.271Z,16.13
2018-02-19T19:33:06.473Z,18.53
2018-02-19T19:35:34.084Z,13.30
2018-02-19T19:38:01.698Z,15.33
2018-02-19T19:40:30.034Z,15.57
2018-02-19T19:42:57.630Z,13.37
2018-02-19T19:45:25.278Z,14.70
2018-02-19T19:47:52.883Z,16.67
2018-02-19T19:50:20.484Z,15.23
2018-02-19T19:52:48.110Z,15.97
2018-02-19T19:55:15.734Z,15.20
2018-02-19T19:57:43.389Z,17.73
2018-02-19T20:00:11.047Z,18.33
2018-02-19T20:02:38.890Z,25.37
2018-02-19T20:05:06.444Z,23.03
2018-02-19T20:07:34.084Z,20.03
2018-02-19T20:10:01.707Z,17.67
2018-02-19T20:12:29.294Z,28.23
2018-02-19T20:14:56.959Z,24.20
2018-02-19T20:17:24.519Z,22.73
2018-02-19T20:19:52.202Z,23.77
2018-02-19T20:22:19.847Z,25.37
2018-02-19T20:24:47.470Z,22.60
2018-02-19T20:27:15.037Z,21.03
2018-02-19T20:29:42.657Z,22.60
2018-02-19T20:32:10.650Z,23.43
2018-02-19T20:34:38.267Z,22.57
2018-02-19T20:37:05.885Z,21.03
2018-02-19T20:39:34.411Z,24.43
2018-02-19T20:42:01.985Z,27.07
2018-02-19T20:44:29.635Z,23.13
2018-02-19T20:46:57.234Z,23.50
2018-02-19T20:49:24.846Z,25.33
2018-02-19T20:51:52.482Z,24.70
2018-02-19T20:54:20.198Z,23.23
2018-02-19T20:56:47.818Z,26.40
2018-02-19T20:59:15.498Z,22.80
2018-02-19T21:01:43.085Z,25.00
2018-02-19T21:04:10.707Z,27.50
2018-02-19T21:06:38.342Z,24.97
2018-02-19T21:09:05.948Z,22.90
2018-02-19T21:11:34.174Z,26.93
2018-02-19T21:14:01.823Z,29.30
2018-02-19T21:16:29.560Z,25.37
2018-02-19T21:18:57.129Z,23.23
2018-02-19T21:21:24.913Z,25.57
2018-02-19T21:23:52.498Z,21.70
2018-02-19T21:26:20.078Z,22.27
2018-02-19T21:28:47.808Z,23.70
2018-02-19T21:31:15.360Z,23.20
2018-02-19T21:33:43.012Z,20.30
2018-02-19T21:36:10.703Z,19.93
2018-02-19T21:38:38.275Z,23.37
2018-02-19T21:41:05.860Z,23.13
2018-02-19T21:43:33.480Z,24.10
2018-02-19T21:46:01.059Z,21.43
2018-02-19T21:48:28.697Z,24.00
2018-02-19T21:50:56.326Z,21.80
2018-02-19T21:53:23.971Z,24.90
2018-02-19T21:55:51.535Z,25.47
2018-02-19T21:58:19.165Z,22.07
2018-02-19T22:00:46.741Z,21.30
2018-02-19T22:03:14.308Z,22.47
2018-02-19T22:05:41.937Z,21.03
2018-02-19T22:08:09.524Z,20.30
2018-02-19T22:10:37.107Z,21.90
2018-02-19T22:13:04.755Z,21.57
2018-02-19T22:15:32.324Z,22.37
2018-02-19T22:18:00.007Z,21.43
2018-02-19T22:20:27.632Z,23.07
2018-02-19T22:22:55.739Z,19.20
2018-02-19T22:25:23.305Z,20.63
2018-02-19T22:27:52.535Z,21.47
2018-02-19T22:30:20.109Z,20.20
2018-02-19T22:32:47.885Z,20.67
2018-02-19T22:35:15.504Z,24.60
2018-02-19T22:37:43.106Z,24.70
2018-02-19T22:40:10.676Z,18.67
2018-02-19T22:42:38.305Z,23.80
2018-02-19T22:45:05.874Z,20.00
2018-02-19T22:47:33.461Z,22.87
2018-02-19T22:50:01.126Z,22.33
2018-02-19T22:52:28.757Z,22.43
2018-02-19T22:54:56.331Z,23.60
2018-02-19T22:57:23.973Z,23.03
2018-02-19T22:59:51.561Z,21.27
2018-02-19T23:02:19.721Z,23.80
2018-02-19T23:04:47.339Z,21.17
2018-02-19T23:07:14.950Z,21.53
2018-02-19T23:09:42.508Z,21.10
2018-02-19T23:12:10.144Z,20.23
2018-02-19T23:14:37.710Z,21.47
2018-02-19T23:17:05.299Z,22.20
2018-02-19T23:19:32.950Z,20.17
2018-02-19T23:22:00.529Z,23.57
2018-02-19T23:24:28.218Z,21.63
2018-02-19T23:26:55.846Z,24.40
2018-02-19T23:29:23.418Z,23.97
2018-02-19T23:31:51.534Z,22.47
2018-02-19T23:34:19.137Z,20.57
2018-02-19T23:36:46.712Z,19.73
2018-02-19T23:39:14.307Z,21.87
2018-02-19T23:41:41.951Z,21.90
2018-02-19T23:44:09.546Z,19.57
2018-02-19T23:47:15.264Z,20.97
2018-02-19T23:50:02.651Z,25.20
2018-02-19T23:52:40.575Z,22.00
2018-02-19T23:55:08.149Z,21.70
2018-02-19T23:57:35.748Z,22.90
